Time;durP1;ratioP1;P1;durP2;ratioP2;P2;SDS_P1;SDS_P2;PMS_P1;PMS_P2;Temp;Humidity;BMP_temperature;BMP_pressure;BME280_temperature;BME280_humidity;BME280_pressure;Samples;Min_cycle;Max_cycle;Signal;HPM_P1;HPM_P2
2022/08/02 00:01:55;;;;;;;;;;;22.50;64.50;;;;;;4943955;29;19914;-85
2022/08/02 00:04:20;;;;;;;;;;;22.40;64.90;;;;;;4945031;29;19937;-84
2022/08/02 00:06:46;;;;;;;;;;;22.50;65.00;;;;;;4944737;29;20317;-83
2022/08/02 00:09:12;;;;;;;;;;;22.40;65.20;;;;;;4944885;29;20016;-84
2022/08/02 00:11:37;;;;;;;;;;;22.30;65.50;;;;;;4944400;29;19938;-82
2022/08/02 00:14:03;;;;;;;;;;;22.40;65.60;;;;;;4944859;29;19997;-83
2022/08/02 00:16:28;;;;;;;;;;;22.50;65.20;;;;;;4943744;28;19993;-82
2022/08/02 00:18:54;;;;;;;;;;;22.40;65.10;;;;;;4941174;29;19925;-82
2022/08/02 00:21:19;;;;;;;;;;;22.30;65.30;;;;;;4944516;29;19926;-81
2022/08/02 00:23:45;;;;;;;;;;;22.40;65.30;;;;;;4944663;29;19925;-81
2022/08/02 00:26:10;;;;;;;;;;;22.30;65.40;;;;;;4943395;29;19921;-82
2022/08/02 00:28:36;;;;;;;;;;;22.40;65.30;;;;;;4927341;29;19933;-83
2022/08/02 00:31:02;;;;;;;;;;;22.30;65.30;;;;;;4944881;29;20009;-84
2022/08/02 00:33:27;;;;;;;;;;;22.40;65.60;;;;;;4927502;29;19918;-84
2022/08/02 00:35:53;;;;;;;;;;;22.40;65.00;;;;;;4945000;29;19914;-85
2022/08/02 00:38:18;;;;;;;;;;;22.40;64.90;;;;;;4926586;29;19925;-85
2022/08/02 00:40:47;;;;;;;;;;;22.40;64.70;;;;;;4945803;29;19967;-78
2022/08/02 00:43:13;;;;;;;;;;;22.40;64.80;;;;;;4943630;29;19914;-79
2022/08/02 00:45:39;;;;;;;;;;;22.40;65.00;;;;;;4944804;29;19922;-78
2022/08/02 00:48:05;;;;;;;;;;;22.40;65.00;;;;;;4926275;29;19921;-79
2022/08/02 00:50:31;;;;;;;;;;;22.30;65.20;;;;;;4926782;29;19944;-77
2022/08/02 00:52:57;;;;;;;;;;;22.30;65.30;;;;;;4942879;29;20366;-79
2022/08/02 00:55:23;;;;;;;;;;;22.30;65.10;;;;;;4943730;29;20647;-79
2022/08/02 00:57:49;;;;;;;;;;;22.30;65.30;;;;;;4944158;29;19921;-78
2022/08/02 01:00:14;;;;;;;;;;;22.30;65.20;;;;;;4940694;29;19915;-78
2022/08/02 01:02:40;;;;;;;;;;;22.20;65.70;;;;;;4941047;29;20419;-78
2022/08/02 01:05:06;;;;;;;;;;;22.10;66.20;;;;;;4944150;29;19918;-79
2022/08/02 01:07:32;;;;;;;;;;;22.20;66.00;;;;;;4931607;29;19918;-79
2022/08/02 01:09:57;;;;;;;;;;;22.20;66.00;;;;;;4944636;29;19927;-79
2022/08/02 01:12:23;;;;;;;;;;;22.00;66.60;;;;;;4943897;29;19970;-79
2022/08/02 01:14:50;;;;;;;;;;;21.90;67.30;;;;;;4943587;29;19973;-79
2022/08/02 01:17:33;;;;;;;;;;;21.80;67.70;;;;;;4943632;28;19955;-79
2022/08/02 01:20:18;;;;;;;;;;;21.70;68.10;;;;;;4924277;29;20290;-80
2022/08/02 01:23:03;;;;;;;;;;;21.60;68.50;;;;;;4940837;29;19915;-80
2022/08/02 01:25:28;;;;;;;;;;;21.70;68.80;;;;;;4944440;29;19922;-77
2022/08/02 01:28:00;;;;;;;;;;;21.60;69.00;;;;;;4947167;28;19914;-78
2022/08/02 01:30:26;;;;;;;;;;;21.50;69.30;;;;;;4947817;29;19918;-78
2022/08/02 01:32:54;;;;;;;;;;;21.50;69.50;;;;;;4948153;29;19921;-78
2022/08/02 01:35:22;;;;;;;;;;;21.40;69.60;;;;;;4948883;29;20390;-78
2022/08/02 01:37:53;;;;;;;;;;;21.40;70.00;;;;;;4940991;29;19922;-78
2022/08/02 01:40:26;;;;;;;;;;;21.40;69.90;;;;;;4952534;28;19914;-87
2022/08/02 01:42:53;;;;;;;;;;;21.40;70.00;;;;;;4945738;29;19918;-86
2022/08/02 01:45:20;;;;;;;;;;;21.30;70.20;;;;;;4947932;29;19915;-86
2022/08/02 01:47:47;;;;;;;;;;;21.30;70.60;;;;;;4946866;29;19914;-85
2022/08/02 01:50:15;;;;;;;;;;;21.20;70.70;;;;;;4947965;29;19922;-86
2022/08/02 01:52:44;;;;;;;;;;;21.30;70.50;;;;;;4946629;29;19914;-85
2022/08/02 01:55:14;;;;;;;;;;;21.40;70.00;;;;;;4941934;29;19918;-85
2022/08/02 01:57:43;;;;;;;;;;;21.40;70.10;;;;;;4946979;29;19915;-85
2022/08/02 02:00:10;;;;;;;;;;;21.30;70.40;;;;;;4947249;29;19914;-84
2022/08/02 02:02:37;;;;;;;;;;;21.30;70.40;;;;;;4947308;29;19918;-83
2022/08/02 02:05:03;;;;;;;;;;;21.30;70.60;;;;;;4947018;29;19926;-85
2022/08/02 02:07:30;;;;;;;;;;;21.30;70.60;;;;;;4946451;29;20554;-85
2022/08/02 02:09:57;;;;;;;;;;;21.20;71.30;;;;;;4947204;29;19933;-86
2022/08/02 02:12:23;;;;;;;;;;;21.00;71.60;;;;;;4946477;29;19921;-86
2022/08/02 02:14:49;;;;;;;;;;;21.10;71.60;;;;;;4947099;29;19914;-86
2022/08/02 02:17:14;;;;;;;;;;;21.10;71.60;;;;;;4947586;29;19914;-87
2022/08/02 02:19:40;;;;;;;;;;;21.00;71.90;;;;;;4946853;29;19918;-86
2022/08/02 02:22:06;;;;;;;;;;;20.90;72.10;;;;;;4947105;29;20301;-87
2022/08/02 02:24:32;;;;;;;;;;;21.00;72.30;;;;;;4946464;29;19914;-87
2022/08/02 02:27:00;;;;;;;;;;;21.00;72.40;;;;;;4946497;29;19914;-87
2022/08/02 02:29:27;;;;;;;;;;;20.90;72.80;;;;;;4946634;29;19945;-87
2022/08/02 02:31:54;;;;;;;;;;;20.80;72.90;;;;;;4946669;29;19918;-86
2022/08/02 02:34:27;;;;;;;;;;;20.80;73.20;;;;;;4945567;29;19914;-86
2022/08/02 02:36:55;;;;;;;;;;;20.70;73.60;;;;;;4946764;28;19937;-84
2022/08/02 02:39:21;;;;;;;;;;;20.70;74.50;;;;;;4945316;28;19914;-85
2022/08/02 02:41:48;;;;;;;;;;;20.70;74.10;;;;;;4947537;28;19914;-85
2022/08/02 02:44:16;;;;;;;;;;;20.60;74.40;;;;;;4929376;29;19945;-85
2022/08/02 02:46:42;;;;;;;;;;;20.70;74.50;;;;;;4946150;29;19925;-85
2022/08/02 02:49:09;;;;;;;;;;;20.70;74.30;;;;;;4947110;29;19922;-85
2022/08/02 02:51:35;;;;;;;;;;;20.60;74.50;;;;;;4946582;29;19921;-83
2022/08/02 02:54:01;;;;;;;;;;;20.70;74.50;;;;;;4947537;29;20338;-83
2022/08/02 02:56:27;;;;;;;;;;;20.70;74.50;;;;;;4945966;29;20354;-83
2022/08/02 02:58:53;;;;;;;;;;;20.70;74.70;;;;;;4947468;29;19919;-83
2022/08/02 03:01:31;;;;;;;;;;;20.60;75.00;;;;;;4947581;29;19914;-84
2022/08/02 03:03:59;;;;;;;;;;;20.60;75.00;;;;;;4944161;29;19945;-84
2022/08/02 03:06:25;;;;;;;;;;;20.60;75.40;;;;;;4947329;29;19930;-84
2022/08/02 03:08:51;;;;;;;;;;;20.50;75.70;;;;;;4944482;29;19919;-90
2022/08/02 03:11:16;;;;;;;;;;;20.70;75.20;;;;;;4947189;29;20457;-89
2022/08/02 03:13:42;;;;;;;;;;;20.50;75.70;;;;;;4946860;29;19915;-84
2022/08/02 03:16:09;;;;;;;;;;;20.60;75.60;;;;;;4945866;29;19920;-86
2022/08/02 03:18:36;;;;;;;;;;;20.50;76.10;;;;;;4944049;29;19942;-86
2022/08/02 03:21:02;;;;;;;;;;;20.40;76.50;;;;;;4945640;29;20293;-87
2022/08/02 03:23:28;;;;;;;;;;;20.40;76.70;;;;;;4936780;29;19914;-87
2022/08/02 03:25:53;;;;;;;;;;;20.40;76.90;;;;;;4947809;29;20005;-89
2022/08/02 03:28:19;;;;;;;;;;;20.20;77.10;;;;;;4946396;29;19914;-88
2022/08/02 03:30:44;;;;;;;;;;;20.20;77.70;;;;;;4948061;29;19924;-90
2022/08/02 03:33:10;;;;;;;;;;;20.10;78.20;;;;;;4947788;29;19918;-85
2022/08/02 03:35:36;;;;;;;;;;;20.10;78.30;;;;;;4946699;29;19941;-85
2022/08/02 03:38:02;;;;;;;;;;;20.10;78.60;;;;;;4945926;29;19915;-86
2022/08/02 03:40:29;;;;;;;;;;;20.00;79.00;;;;;;4947995;28;20005;-78
2022/08/02 03:42:54;;;;;;;;;;;19.90;79.50;;;;;;4944728;29;19914;-78
2022/08/02 03:45:20;;;;;;;;;;;19.90;79.80;;;;;;4945575;29;19919;-79
2022/08/02 03:47:46;;;;;;;;;;;19.90;79.80;;;;;;4944986;29;19944;-78
2022/08/02 03:50:14;;;;;;;;;;;19.80;80.40;;;;;;4943680;28;20536;-78
2022/08/02 03:52:41;;;;;;;;;;;19.80;80.70;;;;;;4941257;29;19925;-78
2022/08/02 03:55:07;;;;;;;;;;;19.70;81.20;;;;;;4926226;29;19915;-77
2022/08/02 03:57:35;;;;;;;;;;;19.70;81.60;;;;;;4945402;29;19997;-78
2022/08/02 04:00:01;;;;;;;;;;;19.70;81.90;;;;;;4945577;29;20012;-78
2022/08/02 04:02:26;;;;;;;;;;;19.70;82.30;;;;;;4944504;29;20709;-78
2022/08/02 04:04:52;;;;;;;;;;;19.70;82.70;;;;;;4945640;29;20341;-78
2022/08/02 04:07:17;;;;;;;;;;;19.70;82.90;;;;;;4944488;29;19916;-79
2022/08/02 04:09:43;;;;;;;;;;;19.70;83.00;;;;;;4944827;29;20294;-79
2022/08/02 04:12:08;;;;;;;;;;;19.70;83.30;;;;;;4944564;29;19942;-79
2022/08/02 04:14:34;;;;;;;;;;;19.50;83.80;;;;;;4943768;29;20013;-79
2022/08/02 04:17:04;;;;;;;;;;;19.60;84.10;;;;;;4945008;29;19950;-81
2022/08/02 04:19:37;;;;;;;;;;;19.50;84.60;;;;;;4938626;29;19926;-79
2022/08/02 04:22:03;;;;;;;;;;;19.50;85.20;;;;;;4942613;29;19914;-78
2022/08/02 04:24:33;;;;;;;;;;;19.50;85.20;;;;;;4926840;29;19921;-78
2022/08/02 04:26:59;;;;;;;;;;;19.50;85.60;;;;;;4943873;29;20389;-78
2022/08/02 04:29:26;;;;;;;;;;;19.40;86.20;;;;;;4944702;29;20806;-78
2022/08/02 04:31:52;;;;;;;;;;;19.40;86.70;;;;;;4927554;29;19918;-77
2022/08/02 04:34:17;;;;;;;;;;;19.40;87.30;;;;;;4944260;29;19915;-80
2022/08/02 04:36:43;;;;;;;;;;;19.30;88.00;;;;;;4944447;29;19926;-78
2022/08/02 04:39:09;;;;;;;;;;;19.40;88.20;;;;;;4943025;29;20017;-75
2022/08/02 04:41:35;;;;;;;;;;;19.30;88.90;;;;;;4944500;28;19962;-83
2022/08/02 04:44:01;;;;;;;;;;;19.30;89.20;;;;;;4944277;29;19947;-85
2022/08/02 04:46:26;;;;;;;;;;;19.20;90.00;;;;;;4945601;29;20055;-85
2022/08/02 04:48:52;;;;;;;;;;;19.40;89.70;;;;;;4945331;29;20028;-89
2022/08/02 04:51:17;;;;;;;;;;;19.40;89.90;;;;;;4926896;29;20304;-90
2022/08/02 04:53:43;;;;;;;;;;;19.50;89.40;;;;;;4945679;29;19918;-89
2022/08/02 04:56:08;;;;;;;;;;;19.90;87.60;;;;;;4944681;29;19914;-86
2022/08/02 04:58:34;;;;;;;;;;;20.30;85.50;;;;;;4937974;29;20021;-84
2022/08/02 05:00:59;;;;;;;;;;;20.20;85.60;;;;;;4945409;29;20038;-91
2022/08/02 05:03:25;;;;;;;;;;;20.40;85.00;;;;;;4949944;28;19910;-81
2022/08/02 05:05:50;;;;;;;;;;;20.60;84.00;;;;;;4950077;29;20420;-83
2022/08/02 05:08:16;;;;;;;;;;;20.70;83.10;;;;;;4949554;29;19929;-82
2022/08/02 05:10:41;;;;;;;;;;;20.90;82.00;;;;;;4949612;28;19929;-82
2022/08/02 05:13:07;;;;;;;;;;;21.00;81.80;;;;;;4941914;28;20021;-83
2022/08/02 05:15:33;;;;;;;;;;;21.60;80.20;;;;;;4950365;28;19954;-85
2022/08/02 05:17:58;;;;;;;;;;;22.20;78.00;;;;;;4948831;28;19914;-84
2022/08/02 05:20:24;;;;;;;;;;;22.40;77.30;;;;;;4949793;28;20141;-89
2022/08/02 05:22:49;;;;;;;;;;;22.60;76.50;;;;;;4950518;28;19942;-89
2022/08/02 05:25:15;;;;;;;;;;;22.50;76.30;;;;;;4951840;29;19910;-87
2022/08/02 05:27:40;;;;;;;;;;;22.70;75.70;;;;;;4954701;28;20035;-93
2022/08/02 05:30:06;;;;;;;;;;;22.90;74.80;;;;;;4955322;28;19914;-91
2022/08/02 05:32:32;;;;;;;;;;;23.20;74.20;;;;;;4950693;28;20490;-91
2022/08/02 05:34:59;;;;;;;;;;;23.50;73.40;;;;;;4956129;29;19921;-92
2022/08/02 05:37:24;;;;;;;;;;;23.50;73.30;;;;;;4955320;28;19957;-92
2022/08/02 05:39:50;;;;;;;;;;;23.70;72.50;;;;;;4955268;29;19969;-93
2022/08/02 05:42:15;;;;;;;;;;;23.80;72.30;;;;;;4950666;28;20360;-76
2022/08/02 05:44:41;;;;;;;;;;;24.20;71.30;;;;;;4949979;28;20369;-77
2022/08/02 05:47:06;;;;;;;;;;;24.60;70.00;;;;;;4947878;29;19914;-77
2022/08/02 05:49:32;;;;;;;;;;;24.70;69.30;;;;;;4951257;29;19989;-77
2022/08/02 05:52:06;;;;;;;;;;;25.10;68.70;;;;;;4950180;29;19961;-78
2022/08/02 05:54:35;;;;;;;;;;;25.20;68.20;;;;;;4951267;29;19962;-78
2022/08/02 05:57:05;;;;;;;;;;;25.60;67.20;;;;;;4950923;29;19917;-78
2022/08/02 05:59:46;;;;;;;;;;;25.80;66.50;;;;;;4951022;28;20041;-78
2022/08/02 06:02:32;;;;;;;;;;;26.10;65.70;;;;;;4950856;28;19918;-82
2022/08/02 06:04:58;;;;;;;;;;;25.60;66.20;;;;;;4950375;28;19922;-81
2022/08/02 06:07:23;;;;;;;;;;;26.20;65.60;;;;;;4951155;29;19988;-81
2022/08/02 06:09:49;;;;;;;;;;;25.60;66.20;;;;;;4950908;29;19910;-80
2022/08/02 06:12:15;;;;;;;;;;;26.20;65.10;;;;;;4933086;29;20009;-81
2022/08/02 06:14:41;;;;;;;;;;;26.70;64.40;;;;;;4947622;28;19911;-81
2022/08/02 06:17:07;;;;;;;;;;;26.30;64.10;;;;;;4948298;29;19949;-79
2022/08/02 06:19:35;;;;;;;;;;;26.70;64.40;;;;;;4947391;29;19918;-81
2022/08/02 06:22:13;;;;;;;;;;;27.30;62.40;;;;;;4947769;29;19915;-81
2022/08/02 06:24:49;;;;;;;;;;;27.10;62.30;;;;;;4947636;29;19910;-80
2022/08/02 06:27:14;;;;;;;;;;;27.50;61.70;;;;;;4947886;29;19940;-79
2022/08/02 06:29:41;;;;;;;;;;;28.20;60.60;;;;;;4947376;28;20294;-79
2022/08/02 06:32:08;;;;;;;;;;;28.70;58.60;;;;;;4946906;29;19925;-80
2022/08/02 06:34:37;;;;;;;;;;;28.40;58.90;;;;;;4947301;29;19914;-80
2022/08/02 06:37:11;;;;;;;;;;;29.30;58.50;;;;;;4946470;29;20374;-79
2022/08/02 06:39:57;;;;;;;;;;;28.90;58.70;;;;;;4946820;28;19989;-79
2022/08/02 06:42:29;;;;;;;;;;;29.10;58.10;;;;;;4944937;29;19910;-87
2022/08/02 06:44:55;;;;;;;;;;;29.40;57.50;;;;;;4945047;29;20401;-88
2022/08/02 06:47:21;;;;;;;;;;;29.40;57.30;;;;;;4947678;29;20452;-85
2022/08/02 06:49:47;;;;;;;;;;;29.90;56.90;;;;;;4946389;29;19917;-91
2022/08/02 06:52:12;;;;;;;;;;;30.50;55.60;;;;;;4951197;29;19911;-94
2022/08/02 06:54:40;;;;;;;;;;;30.60;55.00;;;;;;4965829;29;19910;-96
2022/08/02 06:57:08;;;;;;;;;;;30.60;55.20;;;;;;4959092;29;19918;-90
2022/08/02 06:59:33;;;;;;;;;;;30.50;55.30;;;;;;4952950;29;19922;-93
2022/08/02 07:02:01;;;;;;;;;;;31.70;54.00;;;;;;4953541;29;19913;-94
2022/08/02 07:04:27;;;;;;;;;;;32.50;52.80;;;;;;4934313;29;19958;-94
2022/08/02 07:06:52;;;;;;;;;;;31.90;53.20;;;;;;4953990;29;19961;-94
2022/08/02 07:09:18;;;;;;;;;;;31.60;53.50;;;;;;4953904;29;19910;-94
2022/08/02 07:11:43;;;;;;;;;;;32.20;52.90;;;;;;4953570;29;20378;-96
2022/08/02 07:14:09;;;;;;;;;;;31.30;52.30;;;;;;4956067;29;19939;-96
2022/08/02 07:16:34;;;;;;;;;;;31.80;53.20;;;;;;4953887;29;19906;-94
2022/08/02 07:19:00;;;;;;;;;;;32.20;52.50;;;;;;4953504;29;19926;-94
2022/08/02 07:21:25;;;;;;;;;;;33.00;51.30;;;;;;4936257;29;19907;-95
2022/08/02 07:23:51;;;;;;;;;;;33.00;50.90;;;;;;4953708;29;20389;-94
2022/08/02 07:26:16;;;;;;;;;;;32.50;51.50;;;;;;4953851;28;19914;-95
2022/08/02 07:28:42;;;;;;;;;;;32.90;50.50;;;;;;4953876;29;20312;-95
2022/08/02 07:31:08;;;;;;;;;;;32.50;51.20;;;;;;4954482;29;19985;-94
2022/08/02 07:33:33;;;;;;;;;;;32.60;51.30;;;;;;4953025;29;19910;-95
2022/08/02 07:35:59;;;;;;;;;;;32.80;51.30;;;;;;4934320;29;19997;-96
2022/08/02 07:38:25;;;;;;;;;;;34.00;49.80;;;;;;4953431;29;20006;-95
2022/08/02 07:40:50;;;;;;;;;;;33.90;49.90;;;;;;4954218;29;20432;-95
2022/08/02 07:43:16;;;;;;;;;;;33.60;49.40;;;;;;4953636;29;19910;-95
2022/08/02 07:45:41;;;;;;;;;;;32.40;51.40;;;;;;4939200;29;19910;-96
2022/08/02 07:48:07;;;;;;;;;;;33.90;49.70;;;;;;4957151;29;19910;-95
2022/08/02 07:50:32;;;;;;;;;;;34.80;49.60;;;;;;4958728;29;20015;-96
2022/08/02 07:52:58;;;;;;;;;;;34.60;49.30;;;;;;4955770;29;19962;-96
2022/08/02 07:55:24;;;;;;;;;;;35.20;48.50;;;;;;4954867;29;19993;-95
2022/08/02 07:57:49;;;;;;;;;;;35.40;48.00;;;;;;4937200;29;19910;-95
2022/08/02 08:00:16;;;;;;;;;;;35.80;47.10;;;;;;4952545;29;19918;-94
2022/08/02 08:02:41;;;;;;;;;;;35.80;47.70;;;;;;4952812;29;19906;-95
2022/08/02 08:05:07;;;;;;;;;;;35.80;47.80;;;;;;4952768;29;20106;-94
2022/08/02 08:07:33;;;;;;;;;;;35.40;47.90;;;;;;4952611;29;20017;-94
2022/08/02 08:09:59;;;;;;;;;;;36.60;47.30;;;;;;4952457;29;19927;-94
2022/08/02 08:12:25;;;;;;;;;;;36.60;46.60;;;;;;4951758;29;20631;-93
2022/08/02 08:14:51;;;;;;;;;;;36.30;46.10;;;;;;4952097;29;19910;-92
2022/08/02 08:17:17;;;;;;;;;;;37.60;45.50;;;;;;4951619;29;19937;-93
2022/08/02 08:19:42;;;;;;;;;;;38.10;44.70;;;;;;4952773;29;19919;-94
2022/08/02 08:22:08;;;;;;;;;;;37.40;45.10;;;;;;4952356;29;19917;-94
2022/08/02 08:24:33;;;;;;;;;;;37.80;44.90;;;;;;4952744;29;20499;-94
2022/08/02 08:26:59;;;;;;;;;;;39.00;43.30;;;;;;4952653;29;20297;-93
2022/08/02 08:29:25;;;;;;;;;;;37.90;43.20;;;;;;4952537;29;20273;-94
2022/08/02 08:31:50;;;;;;;;;;;38.60;44.10;;;;;;4952297;29;20262;-93
2022/08/02 08:34:18;;;;;;;;;;;38.90;43.00;;;;;;4952296;29;19930;-92
2022/08/02 08:36:44;;;;;;;;;;;39.30;43.30;;;;;;4951562;28;20006;-93
2022/08/02 08:39:09;;;;;;;;;;;39.50;43.80;;;;;;4952003;29;19993;-92
2022/08/02 08:41:35;;;;;;;;;;;38.90;43.90;;;;;;4948024;29;19910;-82
2022/08/02 08:44:01;;;;;;;;;;;39.30;43.80;;;;;;4945989;29;19965;-83
2022/08/02 08:46:32;;;;;;;;;;;39.20;44.00;;;;;;4946043;29;19956;-83
2022/08/02 08:49:19;;;;;;;;;;;39.60;43.00;;;;;;4946006;29;19910;-82
2022/08/02 08:51:45;;;;;;;;;;;40.20;42.20;;;;;;4945824;29;20405;-83
2022/08/02 08:54:13;;;;;;;;;;;40.40;42.00;;;;;;4946128;29;20013;-82
2022/08/02 08:56:40;;;;;;;;;;;40.00;42.60;;;;;;4946138;29;19911;-82
2022/08/02 08:59:05;;;;;;;;;;;39.90;42.00;;;;;;4944629;29;19945;-82
2022/08/02 09:01:31;;;;;;;;;;;40.30;42.10;;;;;;4946080;29;19910;-82
2022/08/02 09:03:56;;;;;;;;;;;39.40;42.00;;;;;;4945391;29;19914;-81
2022/08/02 09:06:22;;;;;;;;;;;40.10;42.10;;;;;;4944823;29;19973;-81
2022/08/02 09:08:48;;;;;;;;;;;40.20;42.00;;;;;;4945807;29;19982;-82
2022/08/02 09:11:15;;;;;;;;;;;39.00;43.30;;;;;;4945177;29;19910;-82
2022/08/02 09:13:51;;;;;;;;;;;40.70;41.80;;;;;;4944444;29;21286;-80
2022/08/02 09:16:26;;;;;;;;;;;39.90;42.00;;;;;;4937480;29;19914;-81
2022/08/02 09:18:52;;;;;;;;;;;39.00;43.20;;;;;;4945116;29;20339;-80
2022/08/02 09:21:18;;;;;;;;;;;38.80;42.60;;;;;;4943794;29;19918;-80
2022/08/02 09:23:47;;;;;;;;;;;39.10;43.00;;;;;;4944045;29;20392;-81
2022/08/02 09:26:14;;;;;;;;;;;39.10;42.80;;;;;;4943573;29;19910;-80
2022/08/02 09:28:40;;;;;;;;;;;38.80;42.80;;;;;;4943525;29;19914;-80
2022/08/02 09:31:07;;;;;;;;;;;38.70;42.10;;;;;;4943846;29;19946;-80
2022/08/02 09:33:34;;;;;;;;;;;38.90;42.10;;;;;;4944689;29;19910;-78
2022/08/02 09:36:00;;;;;;;;;;;38.40;42.10;;;;;;4927306;29;20449;-78
2022/08/02 09:38:26;;;;;;;;;;;39.50;41.70;;;;;;4944837;29;19945;-80
2022/08/02 09:40:52;;;;;;;;;;;40.30;40.50;;;;;;4946233;28;19922;-84
2022/08/02 09:43:19;;;;;;;;;;;39.90;39.10;;;;;;4944003;29;20400;-84
2022/08/02 09:45:45;;;;;;;;;;;39.30;39.40;;;;;;4927016;29;20364;-83
2022/08/02 09:48:10;;;;;;;;;;;39.20;40.20;;;;;;4944645;28;19969;-83
2022/08/02 09:50:37;;;;;;;;;;;40.00;39.40;;;;;;4947785;29;20666;-85
2022/08/02 09:53:02;;;;;;;;;;;40.00;39.80;;;;;;4948699;29;19914;-82
2022/08/02 09:55:28;;;;;;;;;;;40.00;40.50;;;;;;4948235;29;19910;-83
2022/08/02 09:57:54;;;;;;;;;;;40.10;38.60;;;;;;4948673;29;20008;-84
2022/08/02 10:00:19;;;;;;;;;;;39.90;37.90;;;;;;4947912;29;19930;-82
2022/08/02 10:03:04;;;;;;;;;;;40.90;38.30;;;;;;4948149;29;19961;-86
2022/08/02 10:05:29;;;;;;;;;;;40.00;39.30;;;;;;4948370;29;20009;-85
2022/08/02 10:07:56;;;;;;;;;;;40.60;39.30;;;;;;4948441;29;20427;-83
2022/08/02 10:10:22;;;;;;;;;;;40.20;40.90;;;;;;4948035;29;19910;-82
2022/08/02 10:12:47;;;;;;;;;;;39.70;40.60;;;;;;4930461;29;19917;-83
2022/08/02 10:15:14;;;;;;;;;;;39.70;40.50;;;;;;4948350;29;19911;-82
2022/08/02 10:17:40;;;;;;;;;;;40.40;39.90;;;;;;4947899;29;20320;-83
2022/08/02 10:20:05;;;;;;;;;;;40.40;39.50;;;;;;4948114;29;19965;-85
2022/08/02 10:22:32;;;;;;;;;;;41.10;39.20;;;;;;4948317;29;20441;-81
2022/08/02 10:25:00;;;;;;;;;;;41.90;38.60;;;;;;4948418;29;19906;-80
2022/08/02 10:27:28;;;;;;;;;;;40.20;39.50;;;;;;4948017;29;20766;-79
2022/08/02 10:29:56;;;;;;;;;;;40.30;39.80;;;;;;4947838;29;20381;-84
2022/08/02 10:32:28;;;;;;;;;;;39.30;39.10;;;;;;4947922;29;20266;-85
2022/08/02 10:35:03;;;;;;;;;;;38.00;40.30;;;;;;4947837;29;19949;-83
2022/08/02 10:37:30;;;;;;;;;;;37.20;40.40;;;;;;4947129;29;19921;-83
2022/08/02 10:39:56;;;;;;;;;;;37.20;42.30;;;;;;4948533;28;20028;-85
2022/08/02 10:42:42;;;;;;;;;;;36.30;42.00;;;;;;4947477;29;20366;-78
2022/08/02 10:45:09;;;;;;;;;;;35.40;43.70;;;;;;4947363;29;20341;-78
2022/08/02 10:47:34;;;;;;;;;;;35.90;43.60;;;;;;4946919;29;19910;-78
2022/08/02 10:50:00;;;;;;;;;;;36.00;44.90;;;;;;4929961;29;19925;-78
2022/08/02 10:52:26;;;;;;;;;;;36.10;45.20;;;;;;4947270;29;19911;-78
2022/08/02 10:54:55;;;;;;;;;;;36.00;44.80;;;;;;4947157;29;19965;-78
2022/08/02 10:57:25;;;;;;;;;;;36.10;45.60;;;;;;4946981;29;19933;-78
2022/08/02 10:59:55;;;;;;;;;;;36.10;45.60;;;;;;4946672;28;19922;-78
2022/08/02 11:02:35;;;;;;;;;;;35.80;44.90;;;;;;4947134;29;19922;-78
2022/08/02 11:05:07;;;;;;;;;;;34.90;44.90;;;;;;4947568;29;19976;-78
2022/08/02 11:07:41;;;;;;;;;;;34.80;44.60;;;;;;4947103;29;20294;-78
2022/08/02 11:10:26;;;;;;;;;;;34.30;45.00;;;;;;4945989;29;20293;-78
2022/08/02 11:12:58;;;;;;;;;;;34.70;46.90;;;;;;4931205;29;19914;-78
2022/08/02 11:15:24;;;;;;;;;;;34.60;45.70;;;;;;4927760;28;20676;-78
2022/08/02 11:17:57;;;;;;;;;;;34.70;45.50;;;;;;4945642;29;19965;-78
2022/08/02 11:20:24;;;;;;;;;;;34.40;47.10;;;;;;4944105;29;20112;-78
2022/08/02 11:22:51;;;;;;;;;;;34.60;46.60;;;;;;4928371;29;20412;-77
2022/08/02 11:25:22;;;;;;;;;;;34.60;45.60;;;;;;4945534;29;19933;-77
2022/08/02 11:27:48;;;;;;;;;;;34.30;46.00;;;;;;4945657;29;20204;-78
2022/08/02 11:30:14;;;;;;;;;;;34.20;45.80;;;;;;4945930;29;20475;-78
2022/08/02 11:32:40;;;;;;;;;;;34.10;45.90;;;;;;4943254;29;19911;-78
2022/08/02 11:35:06;;;;;;;;;;;34.00;45.10;;;;;;4944808;28;19917;-78
2022/08/02 11:37:35;;;;;;;;;;;34.10;46.40;;;;;;4945641;29;19914;-80
2022/08/02 11:40:00;;;;;;;;;;;34.20;45.40;;;;;;4946523;28;19926;-80
2022/08/02 11:42:33;;;;;;;;;;;34.20;46.30;;;;;;4947519;29;19933;-86
2022/08/02 11:44:59;;;;;;;;;;;33.90;45.70;;;;;;4947235;29;19917;-86
2022/08/02 11:47:24;;;;;;;;;;;34.00;45.70;;;;;;4947090;29;19910;-86
2022/08/02 11:49:50;;;;;;;;;;;33.90;45.10;;;;;;4947460;29;19921;-86
2022/08/02 11:52:16;;;;;;;;;;;33.90;45.50;;;;;;4946900;29;19915;-86
2022/08/02 11:54:42;;;;;;;;;;;33.70;45.20;;;;;;4929435;29;19937;-87
2022/08/02 11:57:11;;;;;;;;;;;33.80;44.20;;;;;;4947519;29;19921;-87
2022/08/02 11:59:38;;;;;;;;;;;33.60;44.10;;;;;;4946802;29;19926;-89
2022/08/02 12:02:04;;;;;;;;;;;33.70;43.00;;;;;;4946691;29;20510;-88
2022/08/02 12:04:30;;;;;;;;;;;33.50;40.90;;;;;;4946575;29;20393;-88
2022/08/02 12:06:56;;;;;;;;;;;33.60;42.60;;;;;;4946546;29;19918;-85
2022/08/02 12:09:22;;;;;;;;;;;33.60;41.40;;;;;;4947155;29;19911;-85
2022/08/02 12:11:49;;;;;;;;;;;33.40;40.80;;;;;;4947884;28;19983;-92
2022/08/02 12:14:15;;;;;;;;;;;33.10;40.80;;;;;;4948814;29;19917;-91
2022/08/02 12:19:26;;;;;;;;;;;33.20;42.30;;;;;;4948374;29;19976;-92
2022/08/02 12:22:07;;;;;;;;;;;33.20;42.70;;;;;;4948041;29;19910;-90
2022/08/02 12:24:33;;;;;;;;;;;33.00;42.50;;;;;;4947919;29;19997;-91
2022/08/02 12:26:58;;;;;;;;;;;33.20;43.10;;;;;;4930296;29;20025;-91
2022/08/02 12:29:37;;;;;;;;;;;32.90;43.10;;;;;;4948112;29;20291;-90
2022/08/02 12:32:03;;;;;;;;;;;32.90;43.60;;;;;;4934289;29;19914;-90
2022/08/02 12:34:30;;;;;;;;;;;32.80;44.90;;;;;;4947642;29;19910;-87
2022/08/02 12:37:00;;;;;;;;;;;33.10;46.00;;;;;;4946624;29;19922;-88
2022/08/02 12:39:34;;;;;;;;;;;33.00;45.30;;;;;;4947019;29;19918;-88
2022/08/02 12:42:00;;;;;;;;;;;32.70;43.40;;;;;;4928568;29;20306;-80
2022/08/02 12:44:25;;;;;;;;;;;32.60;43.10;;;;;;4945646;29;19916;-80
2022/08/02 12:46:58;;;;;;;;;;;32.30;43.70;;;;;;4945521;29;20396;-80
2022/08/02 12:49:24;;;;;;;;;;;32.50;44.20;;;;;;4945724;29;19965;-80
2022/08/02 12:51:49;;;;;;;;;;;32.50;44.20;;;;;;4945666;29;19914;-81
2022/08/02 12:54:17;;;;;;;;;;;32.40;44.90;;;;;;4945547;29;19914;-80
2022/08/02 12:56:43;;;;;;;;;;;32.60;44.80;;;;;;4945184;29;20397;-80
2022/08/02 12:59:09;;;;;;;;;;;32.60;45.80;;;;;;4945305;29;19922;-80
2022/08/02 13:01:34;;;;;;;;;;;32.90;44.70;;;;;;4928000;29;19910;-80
2022/08/02 13:04:00;;;;;;;;;;;32.70;46.20;;;;;;4945127;29;19910;-80
2022/08/02 13:06:25;;;;;;;;;;;32.80;46.00;;;;;;4945094;29;19977;-80
2022/08/02 13:08:53;;;;;;;;;;;32.70;45.90;;;;;;4945185;29;20329;-81
2022/08/02 13:11:19;;;;;;;;;;;32.60;46.10;;;;;;4945478;29;19910;-80
2022/08/02 13:13:44;;;;;;;;;;;33.10;45.50;;;;;;4945606;29;19911;-80
2022/08/02 13:16:10;;;;;;;;;;;33.10;45.30;;;;;;4945138;29;20389;-80
2022/08/02 13:18:36;;;;;;;;;;;32.90;44.70;;;;;;4945307;29;19910;-80
2022/08/02 13:21:04;;;;;;;;;;;32.70;43.50;;;;;;4944921;29;19973;-81
2022/08/02 13:23:29;;;;;;;;;;;32.60;42.90;;;;;;4946862;28;19916;-81
2022/08/02 13:25:55;;;;;;;;;;;32.50;42.80;;;;;;4949249;29;19914;-81
2022/08/02 13:28:20;;;;;;;;;;;32.50;42.50;;;;;;4949236;29;20692;-81
2022/08/02 13:30:46;;;;;;;;;;;32.70;41.90;;;;;;4931515;29;19910;-81
2022/08/02 13:33:12;;;;;;;;;;;32.60;42.70;;;;;;4949004;29;19947;-80
2022/08/02 13:35:38;;;;;;;;;;;32.60;44.50;;;;;;4949030;29;20298;-80
2022/08/02 13:38:05;;;;;;;;;;;32.80;44.60;;;;;;4931343;29;19917;-80
2022/08/02 13:40:31;;;;;;;;;;;32.70;44.50;;;;;;4939141;28;20370;-82
2022/08/02 13:42:56;;;;;;;;;;;32.70;43.20;;;;;;4948967;29;19945;-81
2022/08/02 13:45:22;;;;;;;;;;;32.50;44.40;;;;;;4948768;29;19910;-81
2022/08/02 13:47:48;;;;;;;;;;;32.40;47.00;;;;;;4948875;29;20416;-83
2022/08/02 13:50:14;;;;;;;;;;;32.40;48.30;;;;;;4948642;29;19910;-82
2022/08/02 13:52:39;;;;;;;;;;;32.40;46.50;;;;;;4948809;29;20005;-82
2022/08/02 13:55:05;;;;;;;;;;;32.20;46.70;;;;;;4931509;29;20282;-83
2022/08/02 13:57:30;;;;;;;;;;;32.20;45.70;;;;;;4947012;28;20445;-82
2022/08/02 13:59:56;;;;;;;;;;;32.20;46.30;;;;;;4948834;29;19918;-82
2022/08/02 14:02:21;;;;;;;;;;;32.20;45.60;;;;;;4948536;29;19910;-82
2022/08/02 14:04:47;;;;;;;;;;;32.00;46.50;;;;;;4947838;29;19922;-81
2022/08/02 14:07:13;;;;;;;;;;;32.20;46.40;;;;;;4948334;29;19917;-82
2022/08/02 14:09:38;;;;;;;;;;;32.50;46.10;;;;;;4948820;29;19915;-82
2022/08/02 14:12:04;;;;;;;;;;;32.30;47.40;;;;;;4948764;29;19914;-82
2022/08/02 14:14:30;;;;;;;;;;;32.20;45.00;;;;;;4948640;29;19910;-82
2022/08/02 14:16:56;;;;;;;;;;;32.20;45.20;;;;;;4948548;29;19973;-82
2022/08/02 14:19:21;;;;;;;;;;;32.10;44.60;;;;;;4948064;29;20275;-80